createdAt,value
2023-01-02T00:00:25.319Z,100186.16
2023-01-02T00:05:28.649Z,100183.16
2023-01-02T00:10:31.562Z,100179.19
2023-01-02T00:15:35.718Z,100174.75
2023-01-02T00:20:40.635Z,100179.28
2023-01-02T00:25:43.433Z,100165.88
2023-01-02T00:30:47.570Z,100163.66
2023-01-02T00:35:50.489Z,100159.34
2023-01-02T00:40:53.345Z,100158.13
2023-01-02T00:45:57.554Z,100148.38
2023-01-02T00:51:00.360Z,100157.28
2023-01-02T00:56:03.142Z,100158.50
2023-01-02T01:01:07.463Z,100158.47
2023-01-02T01:06:11.588Z,100153.81
2023-01-02T01:11:17.217Z,100154.59
2023-01-02T01:16:21.825Z,100157.34
2023-01-02T01:21:24.967Z,100149.75
2023-01-02T01:26:27.864Z,100144.88
2023-01-02T01:31:32.050Z,100145.00
2023-01-02T01:36:37.521Z,100146.63
2023-01-02T01:41:40.389Z,100137.78
2023-01-02T01:46:47.566Z,100136.09
2023-01-02T01:51:53.929Z,100130.22
2023-01-02T01:57:03.486Z,100126.31
2023-01-02T02:02:08.535Z,100113.88
2023-01-02T02:07:11.927Z,100117.56
2023-01-02T02:12:19.689Z,100104.19
2023-01-02T02:17:40.969Z,100105.81
2023-01-02T02:23:24.035Z,100100.03
2023-01-02T02:28:53.938Z,100090.47
2023-01-02T02:34:07.117Z,100088.63
2023-01-02T02:39:22.391Z,100066.88
2023-01-02T02:44:36.777Z,100068.84
2023-01-02T02:49:50.839Z,100073.28
2023-01-02T02:54:59.457Z,100070.81
2023-01-02T03:00:04.712Z,100076.94
2023-01-02T03:05:13.207Z,100075.13
2023-01-02T03:10:23.767Z,100075.25
2023-01-02T03:15:34.304Z,100079.78
2023-01-02T03:20:45.203Z,100067.91
2023-01-02T03:25:48.728Z,100061.50
2023-01-02T03:30:55.474Z,100061.50
2023-01-02T03:36:04.320Z,100059.25
2023-01-02T03:41:12.386Z,100062.44
2023-01-02T03:46:22.121Z,100051.50
2023-01-02T03:51:26.454Z,100038.25
2023-01-02T03:56:38.973Z,100048.81
2023-01-02T04:01:48.072Z,100050.88
2023-01-02T04:06:57.147Z,100049.16
2023-01-02T04:12:04.745Z,100046.94
2023-01-02T04:17:09.251Z,100038.13
2023-01-02T04:22:19.662Z,100048.28
2023-01-02T04:27:27.104Z,100049.84
2023-01-02T04:32:34.666Z,100054.75
2023-01-02T04:37:40.905Z,100056.59
2023-01-02T04:42:43.711Z,100065.78
2023-01-02T04:47:48.449Z,100058.78
2023-01-02T04:52:52.594Z,100046.53
2023-01-02T04:57:55.320Z,100043.72
2023-01-02T05:02:58.323Z,100044.19
2023-01-02T05:08:02.453Z,100051.41
2023-01-02T05:13:05.374Z,100039.88
2023-01-02T05:18:08.160Z,100053.72
2023-01-02T05:23:30.837Z,100050.91
2023-01-02T05:28:38.420Z,100058.47
2023-01-02T05:33:41.607Z,100056.91
2023-01-02T05:38:45.732Z,100054.94
2023-01-02T05:43:48.550Z,100070.59
2023-01-02T05:48:51.530Z,100060.78
2023-01-02T05:53:56.320Z,100067.16
2023-01-02T05:58:59.307Z,100068.25
2023-01-02T06:04:02.508Z,100067.38
2023-01-02T06:09:08.220Z,100067.38
2023-01-02T06:14:11.573Z,100072.78
2023-01-02T06:19:14.328Z,100084.75
2023-01-02T06:24:18.440Z,100078.28
2023-01-02T06:29:21.204Z,100072.13
2023-01-02T06:34:24.001Z,100073.03
2023-01-02T06:39:28.157Z,100073.03
2023-01-02T06:44:30.891Z,100073.97
2023-01-02T06:49:33.627Z,100060.72
2023-01-02T06:54:37.711Z,100054.34
2023-01-02T06:59:40.435Z,100067.81
2023-01-02T07:04:43.196Z,100090.34
2023-01-02T07:09:47.479Z,100096.72
2023-01-02T07:14:51.134Z,100102.13
2023-01-02T07:19:57.067Z,100106.66
2023-01-02T07:25:03.827Z,100095.97
2023-01-02T07:30:07.961Z,100104.03
2023-01-02T07:35:11.114Z,100098.03
2023-01-02T07:40:15.419Z,100101.59
2023-01-02T07:45:18.330Z,100109.16
2023-01-02T07:50:21.103Z,100100.94
2023-01-02T07:55:25.203Z,100111.84
2023-01-02T08:00:27.987Z,100109.50
2023-01-02T08:05:30.792Z,100135.47
2023-01-02T08:10:35.064Z,100130.94
2023-01-02T08:15:37.851Z,100129.47
2023-01-02T08:20:40.575Z,100132.38
2023-01-02T08:25:44.685Z,100133.00
2023-01-02T08:30:47.496Z,100118.25
2023-01-02T08:35:50.484Z,100129.94
2023-01-02T08:40:54.694Z,100125.91
2023-01-02T08:45:57.532Z,100120.78
2023-01-02T08:51:00.339Z,100119.63
2023-01-02T08:56:24.800Z,100130.00
2023-01-02T09:01:30.061Z,100142.44
2023-01-02T09:06:34.512Z,100138.22
2023-01-02T09:11:40.447Z,100146.09
2023-01-02T09:16:43.459Z,100146.19
2023-01-02T09:21:46.457Z,100149.94
2023-01-02T09:26:50.649Z,100131.13
2023-01-02T09:31:53.507Z,100131.00
2023-01-02T09:36:56.443Z,100142.03
2023-01-02T09:42:02.892Z,100140.44
2023-01-02T09:47:13.171Z,100134.88
2023-01-02T09:52:23.558Z,100128.53
2023-01-02T09:57:39.285Z,100121.03
2023-01-02T10:02:52.590Z,100118.75
2023-01-02T10:08:02.959Z,100112.00
2023-01-02T10:13:16.913Z,100112.19
2023-01-02T10:18:24.223Z,100121.47
2023-01-02T10:23:31.305Z,100118.34
2023-01-02T10:28:47.927Z,100106.47
2023-01-02T10:33:55.071Z,100099.19
2023-01-02T10:39:00.909Z,100113.09
2023-01-02T10:44:11.666Z,100113.25
2023-01-02T10:49:15.284Z,100099.31
2023-01-02T10:54:18.069Z,100098.34
2023-01-02T10:59:24.847Z,100105.31
2023-01-02T11:04:29.881Z,100101.44
2023-01-02T11:09:35.910Z,100097.69
2023-01-02T11:14:40.794Z,100092.06
2023-01-02T11:19:46.026Z,100104.22
2023-01-02T11:24:59.980Z,100107.09
2023-01-02T11:30:08.185Z,100091.22
2023-01-02T11:35:35.155Z,100086.09
2023-01-02T11:40:38.033Z,100085.63
2023-01-02T11:45:42.483Z,100098.25
2023-01-02T11:50:45.415Z,100096.28
2023-01-02T11:55:55.022Z,100106.84
2023-01-02T12:01:06.044Z,100108.44
2023-01-02T12:06:18.003Z,100102.84
2023-01-02T12:11:31.731Z,100083.53
2023-01-02T12:16:46.504Z,100097.84
2023-01-02T12:22:02.374Z,100112.25
2023-01-02T12:27:11.983Z,100101.13
2023-01-02T12:32:51.386Z,100100.38
2023-01-02T12:37:57.106Z,100099.22
2023-01-02T12:43:39.304Z,100113.97
2023-01-02T12:48:58.793Z,100118.03
2023-01-02T12:54:21.253Z,100107.09
2023-01-02T12:59:51.794Z,100113.50
2023-01-02T13:05:03.336Z,100110.91
2023-01-02T13:10:07.499Z,100113.78
2023-01-02T13:15:19.274Z,100109.25
2023-01-02T13:20:34.774Z,100123.38
2023-01-02T13:25:45.789Z,100136.38
2023-01-02T13:31:19.085Z,100132.84
2023-01-02T13:36:26.652Z,100137.53
2023-01-02T13:41:58.294Z,100139.41
2023-01-02T13:47:11.616Z,100145.34
2023-01-02T13:52:20.753Z,100148.69
2023-01-02T13:57:33.559Z,100160.84
2023-01-02T14:02:36.556Z,100153.97
2023-01-02T14:07:49.173Z,100166.25
2023-01-02T14:12:55.804Z,100169.78
2023-01-02T14:18:04.320Z,100171.53
2023-01-02T14:23:11.276Z,100172.16
2023-01-02T14:28:22.653Z,100170.00
2023-01-02T14:33:32.924Z,100184.03
2023-01-02T14:38:42.071Z,100195.69
2023-01-02T14:43:45.895Z,100206.59
2023-01-02T14:48:55.920Z,100207.34
2023-01-02T14:54:03.043Z,100213.16
2023-01-02T14:59:08.227Z,100230.81
2023-01-02T15:04:19.771Z,100236.84
2023-01-02T15:09:30.557Z,100225.88
2023-01-02T15:14:33.389Z,100244.53
2023-01-02T15:19:42.605Z,100246.25
2023-01-02T15:24:50.796Z,100244.41
2023-01-02T15:29:55.599Z,100257.75
2023-01-02T15:35:10.705Z,100266.78
2023-01-02T15:40:18.062Z,100272.94
2023-01-02T15:45:20.906Z,100263.81
2023-01-02T15:50:26.010Z,100269.19
2023-01-02T15:55:36.203Z,100278.84
2023-01-02T16:00:40.617Z,100294.03
2023-01-02T16:05:49.539Z,100295.53
2023-01-02T16:11:01.235Z,100314.28
2023-01-02T16:16:16.191Z,100323.19
2023-01-02T16:21:20.452Z,100316.84
2023-01-02T16:26:31.614Z,100321.19
2023-01-02T16:31:57.871Z,100333.56
2023-01-02T16:37:12.006Z,100327.59
2023-01-02T16:42:36.436Z,100326.44
2023-01-02T16:47:41.567Z,100329.19
2023-01-02T16:52:44.602Z,100338.81
2023-01-02T16:57:50.404Z,100340.63
2023-01-02T17:02:53.492Z,100345.16
2023-01-02T17:07:56.416Z,100356.91
2023-01-02T17:13:00.514Z,100351.59
2023-01-02T17:18:03.388Z,100371.66
2023-01-02T17:23:07.211Z,100376.94
2023-01-02T17:28:12.060Z,100370.06
2023-01-02T17:33:14.941Z,100383.97
2023-01-02T17:38:19.686Z,100387.81
2023-01-02T17:43:23.948Z,100393.94
2023-01-02T17:48:26.787Z,100403.13
2023-01-02T17:53:29.615Z,100401.41
2023-01-02T17:58:33.798Z,100413.03
2023-01-02T18:03:38.100Z,100417.44
2023-01-02T18:08:41.102Z,100434.34
2023-01-02T18:13:48.667Z,100441.66
2023-01-02T18:18:53.221Z,100441.66
2023-01-02T18:23:59.521Z,100442.53
2023-01-02T18:29:09.634Z,100435.31
2023-01-02T18:34:45.604Z,100438.69
2023-01-02T18:39:43.657Z,100450.00
2023-01-02T18:44:48.516Z,100468.16
2023-01-02T18:49:51.437Z,100469.34
2023-01-02T18:55:24.880Z,100465.38
2023-01-02T19:00:30.922Z,100476.59
2023-01-02T19:05:36.027Z,100485.91
2023-01-02T19:10:41.176Z,100486.13
2023-01-02T19:15:48.795Z,100505.56
2023-01-02T19:20:58.425Z,100517.25
2023-01-02T19:26:13.843Z,100509.47
2023-01-02T19:31:18.030Z,100536.81
2023-01-02T19:36:25.497Z,100546.00
2023-01-02T19:41:45.611Z,100558.81
2023-01-02T19:46:49.675Z,100554.63
2023-01-02T19:51:52.417Z,100561.19
2023-01-02T19:56:55.352Z,100557.97
2023-01-02T20:01:59.820Z,100557.34
2023-01-02T20:07:02.897Z,100557.66
2023-01-02T20:12:24.079Z,100573.00
2023-01-02T20:17:28.849Z,100586.03
2023-01-02T20:22:32.408Z,100612.59
2023-01-02T20:27:35.270Z,100611.19
2023-01-02T20:32:39.593Z,100619.81
2023-01-02T20:37:42.482Z,100620.94
2023-01-02T20:42:46.533Z,100636.91
2023-01-02T20:47:50.630Z,100643.91
2023-01-02T20:52:56.946Z,100647.88
2023-01-02T20:58:00.233Z,100651.91
2023-01-02T21:03:04.851Z,100654.72
2023-01-02T21:08:08.057Z,100666.03
2023-01-02T21:13:11.773Z,100680.34
2023-01-02T21:18:18.581Z,100684.53
2023-01-02T21:23:22.746Z,100697.00
2023-01-02T21:28:26.753Z,100698.34
2023-01-02T21:33:31.199Z,100719.75
2023-01-02T21:38:35.363Z,100729.25
2023-01-02T21:43:38.156Z,100742.69
2023-01-02T21:48:42.499Z,100746.00
2023-01-02T21:53:45.789Z,100753.03
2023-01-02T21:58:48.794Z,100763.63
2023-01-02T22:03:56.851Z,100767.31
2023-01-02T22:09:01.042Z,100765.38
2023-01-02T22:14:03.828Z,100765.25
2023-01-02T22:19:07.944Z,100771.53
2023-01-02T22:24:10.812Z,100773.03
2023-01-02T22:29:15.585Z,100774.75
2023-01-02T22:34:21.069Z,100791.00
2023-01-02T22:39:28.629Z,100799.22
2023-01-02T22:44:32.196Z,100805.25
2023-01-02T22:49:40.300Z,100817.25
2023-01-02T22:54:43.074Z,100818.78
2023-01-02T22:59:45.868Z,100830.78
2023-01-02T23:04:50.932Z,100832.31
2023-01-02T23:09:53.860Z,100842.06
2023-01-02T23:14:56.629Z,100844.84
2023-01-02T23:20:00.743Z,100844.84
2023-01-02T23:25:04.609Z,100837.72
2023-01-02T23:30:08.338Z,100848.19
2023-01-02T23:35:12.581Z,100853.72
2023-01-02T23:40:15.481Z,100853.81
2023-01-02T23:45:18.212Z,100858.28
2023-01-02T23:50:22.325Z,100861.06
2023-01-02T23:55:25.047Z,100877.09
